createdAt,value
2018-02-13T00:01:59.138Z,78.04
2018-02-13T00:04:27.707Z,78.40
2018-02-13T00:06:56.030Z,77.33
2018-02-13T00:09:24.376Z,77.64
2018-02-13T00:11:52.848Z,77.22
2018-02-13T00:14:21.229Z,77.48
2018-02-13T00:16:49.591Z,77.69
2018-02-13T00:19:17.924Z,78.00
2018-02-13T00:21:46.285Z,77.83
2018-02-13T00:24:14.990Z,77.59
2018-02-13T00:26:43.288Z,78.51
2018-02-13T00:29:12.383Z,78.19
2018-02-13T00:31:40.777Z,77.92
2018-02-13T00:34:09.894Z,77.53
2018-02-13T00:36:38.252Z,77.40
2018-02-13T00:39:07.429Z,77.74
2018-02-13T00:41:35.811Z,77.48
2018-02-13T00:44:04.889Z,77.29
2018-02-13T00:46:33.698Z,77.71
2018-02-13T00:49:02.009Z,77.28
2018-02-13T00:51:30.419Z,77.50
2018-02-13T00:53:58.938Z,77.40
2018-02-13T00:56:27.299Z,77.82
2018-02-13T00:58:55.653Z,77.36
2018-02-13T01:01:24.062Z,77.08
2018-02-13T01:03:52.382Z,77.96
2018-02-13T01:06:20.692Z,77.59
2018-02-13T01:08:49.443Z,77.35
2018-02-13T01:11:17.780Z,76.92
2018-02-13T01:13:46.091Z,77.15
2018-02-13T01:16:15.263Z,78.38
2018-02-13T01:18:43.602Z,77.57
2018-02-13T01:21:11.983Z,77.58
2018-02-13T01:23:40.428Z,77.13
2018-02-13T01:26:09.582Z,76.85
2018-02-13T01:28:38.077Z,76.66
2018-02-13T01:31:06.758Z,75.84
2018-02-13T01:33:35.073Z,76.47
2018-02-13T01:36:03.387Z,76.49
2018-02-13T01:38:31.778Z,76.86
2018-02-13T01:41:00.158Z,77.86
2018-02-13T01:43:28.448Z,77.38
2018-02-13T01:45:56.765Z,76.45
2018-02-13T01:48:25.870Z,77.08
2018-02-13T01:50:54.185Z,76.99
2018-02-13T01:53:23.065Z,77.10
2018-02-13T01:55:51.392Z,77.33
2018-02-13T01:58:20.526Z,77.90
2018-02-13T02:00:48.929Z,78.46
2018-02-13T02:03:17.229Z,77.62
2018-02-13T02:05:45.613Z,77.76
2018-02-13T02:08:13.989Z,77.41
2018-02-13T02:10:42.316Z,77.43
2018-02-13T02:13:10.659Z,77.53
2018-02-13T02:15:39.417Z,77.70
2018-02-13T02:18:07.788Z,77.41
2018-02-13T02:20:36.300Z,77.02
2018-02-13T02:23:04.673Z,76.70
2018-02-13T02:25:33.017Z,77.27
2018-02-13T02:28:01.327Z,77.48
2018-02-13T02:30:29.707Z,77.80
2018-02-13T02:32:58.853Z,77.92
2018-02-13T02:35:27.164Z,78.19
2018-02-13T02:37:55.700Z,77.69
2018-02-13T02:40:24.029Z,77.81
2018-02-13T02:43:06.116Z,77.43
2018-02-13T02:45:34.460Z,77.59
2018-02-13T02:48:02.812Z,78.16
2018-02-13T02:50:31.258Z,78.02
2018-02-13T02:52:59.603Z,77.67
2018-02-13T02:55:27.945Z,77.99
2018-02-13T02:57:57.717Z,78.03
2018-02-13T03:00:26.039Z,78.25
2018-02-13T03:02:54.370Z,78.04
2018-02-13T03:05:22.732Z,77.88
2018-02-13T03:07:51.090Z,77.53
2018-02-13T03:10:19.434Z,78.16
2018-02-13T03:12:47.814Z,78.42
2018-02-13T03:15:16.909Z,77.58
2018-02-13T03:17:46.018Z,78.21
2018-02-13T03:20:14.797Z,77.56
2018-02-13T03:22:43.134Z,77.49
2018-02-13T03:25:11.462Z,78.10
2018-02-13T03:27:40.604Z,77.76
2018-02-13T03:30:08.912Z,77.70
2018-02-13T03:32:37.281Z,78.51
2018-02-13T03:35:05.675Z,78.79
2018-02-13T03:37:34.040Z,78.28
2018-02-13T03:40:02.371Z,78.61
2018-02-13T03:42:31.121Z,78.33
2018-02-13T03:44:59.470Z,77.81
2018-02-13T03:47:27.788Z,77.24
2018-02-13T03:49:56.911Z,78.31
2018-02-13T03:52:25.240Z,77.90
2018-02-13T03:54:53.566Z,78.75
2018-02-13T03:57:21.940Z,78.32
2018-02-13T03:59:50.320Z,79.75
2018-02-13T04:02:18.660Z,78.73
2018-02-13T04:04:47.691Z,78.99
2018-02-13T04:07:16.072Z,78.83
2018-02-13T04:09:44.408Z,79.28
2018-02-13T04:12:12.751Z,79.44
2018-02-13T04:14:41.060Z,79.27
2018-02-13T04:17:09.384Z,78.68
2018-02-13T04:19:37.931Z,78.71
2018-02-13T04:22:06.379Z,78.43
2018-02-13T04:24:34.727Z,78.49
2018-02-13T04:27:03.273Z,78.34
2018-02-13T04:29:33.093Z,78.34
2018-02-13T04:32:01.410Z,79.11
2018-02-13T04:34:29.754Z,78.01
2018-02-13T04:36:58.082Z,77.50
2018-02-13T04:39:26.439Z,77.22
2018-02-13T04:41:54.809Z,77.92
2018-02-13T04:44:23.880Z,77.38
2018-02-13T04:46:52.219Z,77.82
2018-02-13T04:49:21.036Z,78.07
2018-02-13T04:51:50.106Z,77.49
2018-02-13T04:54:18.591Z,78.08
2018-02-13T04:56:46.987Z,78.09
2018-02-13T04:59:15.304Z,78.31
2018-02-13T05:01:43.695Z,77.92
2018-02-13T05:04:12.024Z,78.32
2018-02-13T05:06:40.317Z,78.76
2018-02-13T05:09:08.652Z,78.79
2018-02-13T05:11:37.490Z,78.68
2018-02-13T05:14:05.850Z,78.13
2018-02-13T05:16:34.270Z,78.11
2018-02-13T05:19:02.617Z,78.68
2018-02-13T05:21:31.704Z,77.87
2018-02-13T05:24:00.006Z,78.95
2018-02-13T05:26:29.108Z,78.33
2018-02-13T05:28:58.243Z,78.21
2018-02-13T05:31:26.580Z,78.70
2018-02-13T05:33:55.884Z,79.17
2018-02-13T05:36:24.979Z,78.71
2018-02-13T05:38:54.064Z,78.64
2018-02-13T05:41:22.756Z,78.41
2018-02-13T05:43:51.092Z,78.28
2018-02-13T05:46:19.412Z,78.80
2018-02-13T05:48:47.760Z,78.78
2018-02-13T05:51:16.068Z,78.60
2018-02-13T05:53:44.377Z,79.26
2018-02-13T05:56:12.791Z,79.60
2018-02-13T05:58:41.151Z,79.13
2018-02-13T06:01:09.461Z,79.26
2018-02-13T06:03:37.810Z,79.01
2018-02-13T06:06:06.136Z,78.50
2018-02-13T06:08:34.487Z,78.80
2018-02-13T06:11:02.844Z,78.89
2018-02-13T06:13:31.304Z,78.54
2018-02-13T06:16:00.390Z,78.44
2018-02-13T06:18:29.802Z,78.33
2018-02-13T06:20:58.124Z,78.51
2018-02-13T06:23:26.494Z,78.24
2018-02-13T06:25:54.868Z,78.58
2018-02-13T06:28:23.178Z,78.91
2018-02-13T06:30:51.502Z,77.68
2018-02-13T06:33:19.863Z,77.03
2018-02-13T06:35:48.168Z,77.13
2018-02-13T06:38:16.520Z,77.17
2018-02-13T06:40:45.699Z,76.53
2018-02-13T06:43:14.041Z,77.12
2018-02-13T06:45:43.363Z,77.54
2018-02-13T06:48:11.743Z,76.64
2018-02-13T06:50:40.069Z,76.15
2018-02-13T06:53:08.409Z,75.95
2018-02-13T06:55:36.784Z,76.26
2018-02-13T06:58:05.158Z,75.75
2018-02-13T07:00:33.474Z,75.49
2018-02-13T07:03:02.945Z,75.47
2018-02-13T07:05:31.260Z,75.20
2018-02-13T07:08:00.362Z,74.49
2018-02-13T07:10:29.767Z,73.98
2018-02-13T07:12:58.214Z,72.86
2018-02-13T07:15:26.544Z,72.36
2018-02-13T07:17:54.886Z,70.87
2018-02-13T07:20:23.224Z,70.75
2018-02-13T07:22:51.587Z,68.82
2018-02-13T07:25:20.457Z,66.42
2018-02-13T07:27:48.752Z,65.09
2018-02-13T07:30:17.077Z,63.87
2018-02-13T07:32:45.447Z,62.01
2018-02-13T07:35:13.775Z,61.84
2018-02-13T07:37:42.132Z,60.17
2018-02-13T07:40:11.240Z,59.85
2018-02-13T07:42:40.345Z,59.47
2018-02-13T07:45:08.668Z,57.51
2018-02-13T07:47:37.789Z,55.03
2018-02-13T07:50:06.180Z,54.12
2018-02-13T07:52:35.262Z,53.25
2018-02-13T07:55:03.608Z,51.67
2018-02-13T07:57:31.912Z,50.64
2018-02-13T08:00:00.217Z,49.68
2018-02-13T08:02:28.603Z,48.39
2018-02-13T08:04:56.961Z,47.15
2018-02-13T08:07:25.299Z,47.22
2018-02-13T08:09:54.762Z,48.24
2018-02-13T08:12:23.104Z,45.28
2018-02-13T08:14:51.458Z,44.03
2018-02-13T08:17:19.808Z,42.19
2018-02-13T08:19:48.165Z,41.20
2018-02-13T08:22:17.266Z,42.71
2018-02-13T08:24:46.400Z,44.41
2018-02-13T08:27:14.740Z,42.75
2018-02-13T08:29:43.826Z,41.52
2018-02-13T08:32:12.721Z,39.56
2018-02-13T08:34:41.813Z,40.46
2018-02-13T08:37:10.957Z,40.78
2018-02-13T08:39:39.301Z,41.25
2018-02-13T08:42:08.443Z,40.35
2018-02-13T08:44:36.758Z,39.66
2018-02-13T08:47:05.126Z,39.40
2018-02-13T08:49:33.471Z,37.57
2018-02-13T08:52:01.820Z,36.76
2018-02-13T08:54:30.594Z,37.76
2018-02-13T08:56:59.747Z,36.87
2018-02-13T08:59:28.207Z,34.76
2018-02-13T09:01:56.598Z,36.49
2018-02-13T09:04:24.937Z,36.96
2018-02-13T09:06:54.097Z,36.58
2018-02-13T09:09:22.404Z,34.74
2018-02-13T09:11:50.772Z,33.15
2018-02-13T09:14:19.080Z,34.47
2018-02-13T09:16:47.751Z,34.52
2018-02-13T09:19:16.849Z,34.05
2018-02-13T09:21:45.934Z,33.60
2018-02-13T09:24:14.314Z,34.54
2018-02-13T09:26:42.667Z,34.19
2018-02-13T09:29:11.004Z,33.36
2018-02-13T09:31:39.349Z,31.79
2018-02-13T09:34:07.708Z,30.78
2018-02-13T09:36:36.000Z,33.07
2018-02-13T09:39:04.515Z,32.91
2018-02-13T09:41:33.582Z,32.10
2018-02-13T09:44:01.927Z,35.21
2018-02-13T09:46:30.291Z,33.54
2018-02-13T09:48:58.605Z,36.06
2018-02-13T09:51:27.047Z,34.23
2018-02-13T09:53:55.400Z,34.37
2018-02-13T09:56:24.506Z,31.91
2018-02-13T09:58:53.396Z,28.62
2018-02-13T10:01:22.182Z,27.16
2018-02-13T10:03:50.515Z,28.49
2018-02-13T10:06:18.863Z,29.68
2018-02-13T10:08:47.234Z,26.76
2018-02-13T10:11:15.556Z,28.22
2018-02-13T10:13:43.907Z,30.08
2018-02-13T10:16:12.273Z,26.10
2018-02-13T10:18:40.584Z,24.36
2018-02-13T10:21:08.926Z,24.08
2018-02-13T10:23:37.591Z,31.85
2018-02-13T10:26:05.973Z,36.77
2018-02-13T10:28:34.334Z,40.13
2018-02-13T10:31:03.461Z,39.82
2018-02-13T10:33:31.786Z,40.54
2018-02-13T10:36:00.100Z,39.38
2018-02-13T10:38:29.242Z,38.15
2018-02-13T10:40:57.767Z,36.97
2018-02-13T10:43:26.880Z,36.67
2018-02-13T10:45:56.496Z,42.76
2018-02-13T10:48:25.686Z,39.51
2018-02-13T10:50:54.788Z,34.12
2018-02-13T10:53:23.900Z,33.52
2018-02-13T10:55:52.230Z,35.40
2018-02-13T10:58:20.525Z,34.01
2018-02-13T11:00:54.502Z,35.49
2018-02-13T11:03:22.891Z,31.41
2018-02-13T11:05:51.249Z,28.16
2018-02-13T11:08:20.290Z,28.83
2018-02-13T11:10:49.384Z,28.00
2018-02-13T11:13:18.531Z,25.00
2018-02-13T11:15:46.864Z,25.90
2018-02-13T11:18:15.191Z,26.49
2018-02-13T11:20:43.516Z,28.52
2018-02-13T11:23:12.666Z,28.45
2018-02-13T11:25:41.032Z,26.37
2018-02-13T11:28:09.372Z,25.72
2018-02-13T11:30:39.000Z,26.15
2018-02-13T11:33:07.349Z,25.76
2018-02-13T11:35:35.681Z,27.22
2018-02-13T11:38:04.083Z,26.52
2018-02-13T11:40:33.185Z,24.92
2018-02-13T11:43:01.632Z,25.59
2018-02-13T11:45:29.992Z,24.69
2018-02-13T11:47:58.328Z,24.22
2018-02-13T11:50:26.692Z,22.69
2018-02-13T11:52:55.325Z,24.03
2018-02-13T11:55:23.667Z,25.86
2018-02-13T11:57:52.023Z,24.98
2018-02-13T12:00:21.021Z,26.06
2018-02-13T12:02:49.373Z,26.53
2018-02-13T12:05:17.739Z,27.28
2018-02-13T12:07:46.167Z,26.83
2018-02-13T12:10:14.553Z,27.42
2018-02-13T12:12:43.090Z,27.04
2018-02-13T12:15:11.698Z,25.06
2018-02-13T12:17:40.069Z,24.97
2018-02-13T12:20:08.394Z,25.30
2018-02-13T12:22:36.984Z,24.33
2018-02-13T12:25:06.113Z,25.92
2018-02-13T12:27:34.478Z,24.44
2018-02-13T12:30:03.639Z,24.62
2018-02-13T12:32:31.955Z,24.47
2018-02-13T12:35:01.081Z,25.36
2018-02-13T12:37:29.664Z,23.67
2018-02-13T12:39:58.056Z,25.60
2018-02-13T12:42:26.408Z,25.54
2018-02-13T12:44:54.775Z,23.42
2018-02-13T12:47:23.888Z,22.38
2018-02-13T12:49:52.243Z,23.48
2018-02-13T12:52:20.864Z,25.64
2018-02-13T12:54:49.207Z,25.70
2018-02-13T12:57:17.599Z,26.27
2018-02-13T12:59:46.626Z,25.36
2018-02-13T13:02:15.523Z,26.05
2018-02-13T13:04:43.876Z,25.82
2018-02-13T13:07:12.318Z,25.25
2018-02-13T13:09:40.627Z,25.78
2018-02-13T13:12:08.962Z,23.72
2018-02-13T13:14:37.324Z,24.59
2018-02-13T13:17:05.695Z,25.62
2018-02-13T13:19:34.112Z,25.62
2018-02-13T13:22:02.567Z,25.50
2018-02-13T13:24:31.735Z,24.40
2018-02-13T13:27:00.061Z,23.33
2018-02-13T13:29:28.393Z,21.79
2018-02-13T13:31:57.028Z,20.62
2018-02-13T13:34:25.380Z,22.11
2018-02-13T13:36:54.525Z,22.01
2018-02-13T13:39:23.633Z,23.11
2018-02-13T13:41:52.215Z,25.08
2018-02-13T13:44:21.922Z,25.74
2018-02-13T13:46:50.325Z,24.79
2018-02-13T13:49:18.660Z,24.50
2018-02-13T13:51:47.007Z,24.99
2018-02-13T13:54:15.367Z,24.25
2018-02-13T13:56:43.725Z,24.08
2018-02-13T13:59:12.093Z,25.24
2018-02-13T14:01:41.195Z,24.05
2018-02-13T14:04:10.283Z,25.44
2018-02-13T14:06:39.914Z,25.08
2018-02-13T14:09:08.221Z,24.86
2018-02-13T14:11:36.582Z,24.82
2018-02-13T14:14:04.973Z,25.71
2018-02-13T14:16:33.324Z,24.88
2018-02-13T14:19:02.075Z,24.22
2018-02-13T14:21:31.216Z,24.15
2018-02-13T14:23:59.600Z,27.40
2018-02-13T14:26:27.932Z,26.92
2018-02-13T14:28:56.620Z,25.86
2018-02-13T14:31:24.935Z,25.55
2018-02-13T14:33:53.408Z,25.31
2018-02-13T14:36:21.817Z,27.76
2018-02-13T14:38:50.236Z,27.53
2018-02-13T14:41:18.594Z,26.51
2018-02-13T14:43:46.960Z,25.70
2018-02-13T14:46:15.295Z,25.08
2018-02-13T14:48:44.397Z,24.95
2018-02-13T14:51:13.711Z,27.22
2018-02-13T14:53:42.029Z,26.58
2018-02-13T14:56:10.376Z,27.11
2018-02-13T14:58:38.722Z,28.83
2018-02-13T15:01:07.120Z,28.51
2018-02-13T15:03:36.195Z,29.06
2018-02-13T15:06:05.666Z,29.36
2018-02-13T15:08:34.024Z,28.02
2018-02-13T15:11:02.347Z,27.99
2018-02-13T15:13:30.970Z,27.56
2018-02-13T15:15:59.283Z,28.66
2018-02-13T15:18:27.664Z,28.22
2018-02-13T15:20:56.045Z,28.37
2018-02-13T15:23:25.186Z,28.07
2018-02-13T15:25:54.283Z,28.35
2018-02-13T15:28:23.388Z,28.46
2018-02-13T15:30:52.516Z,30.33
2018-02-13T15:33:20.877Z,30.49
2018-02-13T15:35:49.559Z,30.73
2018-02-13T15:38:17.963Z,31.98
2018-02-13T15:40:46.275Z,31.53
2018-02-13T15:43:15.192Z,32.20
2018-02-13T15:45:44.295Z,32.23
2018-02-13T15:48:13.430Z,32.20
2018-02-13T15:50:41.765Z,34.51
2018-02-13T15:53:10.872Z,35.90
2018-02-13T15:55:39.204Z,37.34
2018-02-13T15:58:08.095Z,37.73
2018-02-13T16:00:36.406Z,37.88
2018-02-13T16:03:04.717Z,38.84
2018-02-13T16:05:33.137Z,39.13
2018-02-13T16:08:01.710Z,40.07
2018-02-13T16:10:30.016Z,40.31
2018-02-13T16:12:59.177Z,40.73
2018-02-13T16:15:27.460Z,41.21
2018-02-13T16:17:55.811Z,41.50
2018-02-13T16:20:24.353Z,42.30
2018-02-13T16:22:52.675Z,42.44
2018-02-13T16:25:20.975Z,42.69
2018-02-13T16:27:49.315Z,43.32
2018-02-13T16:30:17.695Z,43.74
2018-02-13T16:32:46.029Z,43.92
2018-02-13T16:35:14.374Z,44.07
2018-02-13T16:37:42.694Z,44.42
2018-02-13T16:40:11.009Z,44.96
2018-02-13T16:42:39.954Z,45.48
2018-02-13T16:45:08.269Z,45.79
2018-02-13T16:47:36.587Z,46.12
2018-02-13T16:50:05.681Z,46.16
2018-02-13T16:52:34.039Z,46.91
2018-02-13T16:55:02.357Z,47.70
2018-02-13T16:57:30.718Z,47.98
2018-02-13T16:59:59.825Z,48.89
2018-02-13T17:02:28.203Z,49.13
2018-02-13T17:04:57.523Z,49.67
2018-02-13T17:07:25.867Z,49.52
2018-02-13T17:09:54.186Z,49.71
2018-02-13T17:12:22.560Z,50.33
2018-02-13T17:14:50.874Z,50.62
2018-02-13T17:17:19.210Z,51.25
2018-02-13T17:19:47.552Z,51.57
2018-02-13T17:22:15.907Z,51.44
2018-02-13T17:24:44.328Z,51.60
2018-02-13T17:27:13.275Z,52.07
2018-02-13T17:29:41.651Z,52.07
2018-02-13T17:32:10.740Z,52.97
2018-02-13T17:34:39.876Z,53.07
2018-02-13T17:37:08.213Z,53.52
2018-02-13T17:39:37.343Z,54.35
2018-02-13T17:42:05.685Z,54.64
2018-02-13T17:44:34.785Z,55.30
2018-02-13T17:47:03.865Z,55.99
2018-02-13T17:49:32.490Z,55.59
2018-02-13T17:52:00.949Z,55.44
2018-02-13T17:54:29.275Z,55.38
2018-02-13T17:56:57.613Z,55.28
2018-02-13T17:59:26.699Z,55.06
2018-02-13T18:01:55.788Z,55.50
2018-02-13T18:04:24.118Z,55.64
2018-02-13T18:06:52.492Z,56.46
2018-02-13T18:09:20.832Z,56.03
2018-02-13T18:11:50.078Z,55.70
2018-02-13T18:14:18.402Z,56.23
2018-02-13T18:16:46.843Z,56.57
2018-02-13T18:19:15.166Z,57.05
2018-02-13T18:21:43.497Z,57.24
2018-02-13T18:24:11.813Z,57.35
2018-02-13T18:26:40.180Z,57.00
2018-02-13T18:29:08.517Z,57.31
2018-02-13T18:31:36.837Z,57.38
2018-02-13T18:34:05.451Z,57.15
2018-02-13T18:36:34.643Z,57.90
2018-02-13T18:39:03.746Z,57.17
2018-02-13T18:41:32.094Z,58.58
2018-02-13T18:44:00.415Z,58.59
2018-02-13T18:46:28.859Z,58.30
2018-02-13T18:48:57.214Z,57.53
2018-02-13T18:51:25.552Z,58.41
2018-02-13T18:53:54.059Z,58.33
2018-02-13T18:56:22.602Z,58.43
2018-02-13T18:58:51.678Z,58.56
2018-02-13T19:01:20.029Z,58.14
2018-02-13T19:03:48.416Z,58.52
2018-02-13T19:06:16.742Z,58.40
2018-02-13T19:08:45.845Z,59.19
2018-02-13T19:11:14.216Z,59.38
2018-02-13T19:13:43.355Z,59.92
2018-02-13T19:16:11.918Z,60.44
2018-02-13T19:18:41.225Z,60.07
2018-02-13T19:21:09.554Z,59.33
2018-02-13T19:23:37.933Z,59.51
2018-02-13T19:26:06.283Z,60.19
2018-02-13T19:28:34.637Z,60.45
2018-02-13T19:31:02.978Z,60.04
2018-02-13T19:33:31.330Z,60.01
2018-02-13T19:35:59.799Z,60.71
2018-02-13T19:38:28.144Z,62.03
2018-02-13T19:40:56.668Z,61.32
2018-02-13T19:43:25.109Z,60.76
2018-02-13T19:45:53.819Z,61.20
2018-02-13T19:48:23.048Z,60.58
2018-02-13T19:50:51.940Z,61.19
2018-02-13T19:53:20.312Z,61.33
2018-02-13T19:55:48.697Z,61.43
2018-02-13T19:58:17.012Z,61.74
2018-02-13T20:00:45.323Z,61.30
2018-02-13T20:03:13.831Z,61.03
2018-02-13T20:05:42.162Z,61.14
2018-02-13T20:08:10.489Z,61.62
2018-02-13T20:10:39.044Z,61.67
2018-02-13T20:13:07.509Z,61.85
2018-02-13T20:15:35.906Z,63.09
2018-02-13T20:18:04.335Z,62.64
2018-02-13T20:20:32.786Z,62.49
2018-02-13T20:23:01.335Z,63.09
2018-02-13T20:25:29.889Z,63.94
2018-02-13T20:27:58.392Z,63.12
2018-02-13T20:30:26.837Z,63.43
2018-02-13T20:32:55.321Z,64.84
2018-02-13T20:35:23.905Z,63.56
2018-02-13T20:37:52.277Z,63.42
2018-02-13T20:40:20.873Z,63.75
2018-02-13T20:42:49.348Z,64.72
2018-02-13T20:45:17.748Z,64.48
2018-02-13T20:47:46.413Z,64.52
2018-02-13T20:50:16.280Z,63.58
2018-02-13T20:52:44.712Z,64.65
2018-02-13T20:55:13.164Z,64.34
2018-02-13T20:57:41.665Z,64.95
2018-02-13T21:00:10.161Z,64.90
2018-02-13T21:02:38.665Z,64.83
2018-02-13T21:05:07.907Z,64.85
2018-02-13T21:07:36.452Z,64.64
2018-02-13T21:10:06.643Z,64.09
2018-02-13T21:12:35.848Z,64.30
2018-02-13T21:15:05.054Z,64.60
2018-02-13T21:17:33.635Z,64.36
2018-02-13T21:20:02.939Z,64.36
2018-02-13T21:22:31.337Z,64.21
2018-02-13T21:24:59.733Z,63.74
2018-02-13T21:27:28.138Z,64.85
2018-02-13T21:29:58.023Z,64.79
2018-02-13T21:32:26.458Z,64.88
2018-02-13T21:34:54.941Z,64.58
2018-02-13T21:37:23.423Z,64.63
2018-02-13T21:39:51.918Z,64.93
2018-02-13T21:42:20.290Z,65.70
2018-02-13T21:44:48.753Z,65.99
2018-02-13T21:47:17.249Z,65.80
2018-02-13T21:49:45.568Z,65.54
2018-02-13T21:52:13.921Z,65.35
2018-02-13T21:54:42.695Z,65.68
2018-02-13T21:57:11.219Z,66.23
2018-02-13T21:59:40.485Z,65.85
2018-02-13T22:02:08.826Z,66.34
2018-02-13T22:04:37.172Z,66.52
2018-02-13T22:07:05.513Z,66.46
2018-02-13T22:09:33.936Z,66.55
2018-02-13T22:12:02.272Z,66.49
2018-02-13T22:14:30.619Z,67.00
2018-02-13T22:16:59.064Z,67.17
2018-02-13T22:19:28.139Z,67.41
2018-02-13T22:21:56.542Z,67.26
2018-02-13T22:24:25.070Z,67.31
2018-02-13T22:26:54.222Z,67.40
2018-02-13T22:29:22.565Z,67.48
2018-02-13T22:31:51.120Z,67.13
2018-02-13T22:34:19.557Z,66.98
2018-02-13T22:36:47.866Z,67.35
2018-02-13T22:39:16.347Z,67.12
2018-02-13T22:41:44.821Z,67.35
2018-02-13T22:44:13.171Z,67.53
2018-02-13T22:46:42.302Z,66.96
2018-02-13T22:49:10.870Z,66.59
2018-02-13T22:51:39.729Z,67.06
2018-02-13T22:54:08.448Z,67.39
2018-02-13T22:56:36.768Z,67.24
2018-02-13T22:59:05.184Z,66.75
2018-02-13T23:01:34.081Z,66.82
2018-02-13T23:04:02.421Z,66.75
2018-02-13T23:06:30.762Z,67.09
2018-02-13T23:08:59.132Z,67.35
2018-02-13T23:11:28.273Z,68.43
2018-02-13T23:13:56.577Z,67.90
2018-02-13T23:16:25.691Z,67.87
2018-02-13T23:18:54.794Z,68.50
2018-02-13T23:21:23.882Z,67.50
2018-02-13T23:23:53.249Z,67.63
2018-02-13T23:26:21.562Z,67.68
2018-02-13T23:28:50.044Z,68.05
2018-02-13T23:31:18.791Z,68.18
2018-02-13T23:33:47.261Z,68.69
2018-02-13T23:36:15.899Z,68.19
2018-02-13T23:38:45.049Z,69.04
2018-02-13T23:41:13.498Z,68.98
2018-02-13T23:43:41.832Z,68.47
2018-02-13T23:46:10.497Z,68.38
2018-02-13T23:48:38.897Z,67.97
2018-02-13T23:51:08.887Z,67.91
2018-02-13T23:53:37.216Z,67.69
2018-02-13T23:56:06.275Z,67.93
2018-02-13T23:58:34.677Z,68.15
